sensor_id;sensor_type;location;lat;lon;timestamp;temperature;humidity
67722;SHT31;58309;45.292;11.820;2024-01-30T00:00:40;-1.06;99.99
67722;SHT31;58309;45.292;11.820;2024-01-30T00:03:06;-1.01;99.99
67722;SHT31;58309;45.292;11.820;2024-01-30T00:05:32;-1.01;99.99
67722;SHT31;58309;45.292;11.820;2024-01-30T00:07:58;-1.07;99.99
67722;SHT31;58309;45.292;11.820;2024-01-30T00:10:23;-1.09;99.99
67722;SHT31;58309;45.292;11.820;2024-01-30T00:12:49;-1.09;99.99
67722;SHT31;58309;45.292;11.820;2024-01-30T00:15:14;-1.09;99.99
67722;SHT31;58309;45.292;11.820;2024-01-30T00:17:40;-1.13;99.99
67722;SHT31;58309;45.292;11.820;2024-01-30T00:20:06;-1.19;99.99
67722;SHT31;58309;45.292;11.820;2024-01-30T00:22:32;-1.24;99.99
67722;SHT31;58309;45.292;11.820;2024-01-30T00:24:58;-1.29;99.99
67722;SHT31;58309;45.292;11.820;2024-01-30T00:27:23;-1.34;99.99
67722;SHT31;58309;45.292;11.820;2024-01-30T00:29:49;-1.36;99.99
67722;SHT31;58309;45.292;11.820;2024-01-30T00:32:14;-1.36;99.99
67722;SHT31;58309;45.292;11.820;2024-01-30T00:34:41;-1.39;99.99
67722;SHT31;58309;45.292;11.820;2024-01-30T00:37:07;-1.40;99.99
67722;SHT31;58309;45.292;11.820;2024-01-30T00:39:32;-1.44;99.99
67722;SHT31;58309;45.292;11.820;2024-01-30T00:41:57;-1.51;99.99
67722;SHT31;58309;45.292;11.820;2024-01-30T00:44:23;-1.55;99.99
67722;SHT31;58309;45.292;11.820;2024-01-30T00:46:48;-1.54;99.99
67722;SHT31;58309;45.292;11.820;2024-01-30T00:49:14;-1.60;99.99
67722;SHT31;58309;45.292;11.820;2024-01-30T00:51:39;-1.68;99.99
67722;SHT31;58309;45.292;11.820;2024-01-30T00:54:05;-1.67;99.99
67722;SHT31;58309;45.292;11.820;2024-01-30T00:56:31;-1.72;99.99
67722;SHT31;58309;45.292;11.820;2024-01-30T00:58:57;-1.70;99.99
67722;SHT31;58309;45.292;11.820;2024-01-30T01:01:22;-1.70;99.99
67722;SHT31;58309;45.292;11.820;2024-01-30T01:03:48;-1.71;99.99
67722;SHT31;58309;45.292;11.820;2024-01-30T01:06:13;-1.74;99.99
67722;SHT31;58309;45.292;11.820;2024-01-30T01:08:39;-1.70;99.99
67722;SHT31;58309;45.292;11.820;2024-01-30T01:11:04;-1.70;99.99
67722;SHT31;58309;45.292;11.820;2024-01-30T01:13:30;-1.70;99.99
67722;SHT31;58309;45.292;11.820;2024-01-30T01:15:55;-1.65;99.99
67722;SHT31;58309;45.292;11.820;2024-01-30T01:18:21;-1.68;99.99
67722;SHT31;58309;45.292;11.820;2024-01-30T01:20:46;-1.67;99.99
67722;SHT31;58309;45.292;11.820;2024-01-30T01:23:12;-1.67;99.99
67722;SHT31;58309;45.292;11.820;2024-01-30T01:25:37;-1.65;99.99
67722;SHT31;58309;45.292;11.820;2024-01-30T01:28:03;-1.65;99.99
67722;SHT31;58309;45.292;11.820;2024-01-30T01:30:29;-1.68;99.99
67722;SHT31;58309;45.292;11.820;2024-01-30T01:32:55;-1.70;99.99
67722;SHT31;58309;45.292;11.820;2024-01-30T01:35:25;-1.71;99.99
67722;SHT31;58309;45.292;11.820;2024-01-30T01:37:51;-1.75;99.99
67722;SHT31;58309;45.292;11.820;2024-01-30T01:40:25;-1.78;99.99
67722;SHT31;58309;45.292;11.820;2024-01-30T01:42:51;-1.86;99.99
67722;SHT31;58309;45.292;11.820;2024-01-30T01:45:17;-1.91;99.99
67722;SHT31;58309;45.292;11.820;2024-01-30T01:47:43;-1.98;99.99
67722;SHT31;58309;45.292;11.820;2024-01-30T01:50:12;-2.03;99.99
67722;SHT31;58309;45.292;11.820;2024-01-30T01:52:40;-2.06;99.99
67722;SHT31;58309;45.292;11.820;2024-01-30T01:55:06;-2.09;99.99
67722;SHT31;58309;45.292;11.820;2024-01-30T01:57:33;-2.18;99.99
67722;SHT31;58309;45.292;11.820;2024-01-30T01:59:58;-2.25;99.99
67722;SHT31;58309;45.292;11.820;2024-01-30T02:02:24;-2.28;99.99
67722;SHT31;58309;45.292;11.820;2024-01-30T02:04:50;-2.23;99.99
67722;SHT31;58309;45.292;11.820;2024-01-30T02:07:17;-2.26;99.99
67722;SHT31;58309;45.292;11.820;2024-01-30T02:09:42;-2.33;99.99
67722;SHT31;58309;45.292;11.820;2024-01-30T02:12:08;-2.30;99.99
67722;SHT31;58309;45.292;11.820;2024-01-30T02:14:44;-2.37;99.99
67722;SHT31;58309;45.292;11.820;2024-01-30T02:17:09;-2.37;99.99
67722;SHT31;58309;45.292;11.820;2024-01-30T02:19:35;-2.43;99.99
67722;SHT31;58309;45.292;11.820;2024-01-30T02:22:00;-2.42;99.99
67722;SHT31;58309;45.292;11.820;2024-01-30T02:24:26;-2.43;99.99
67722;SHT31;58309;45.292;11.820;2024-01-30T02:26:51;-2.46;99.99
67722;SHT31;58309;45.292;11.820;2024-01-30T02:29:16;-2.50;99.99
67722;SHT31;58309;45.292;11.820;2024-01-30T02:31:42;-2.56;99.99
67722;SHT31;58309;45.292;11.820;2024-01-30T02:34:07;-2.54;99.99
67722;SHT31;58309;45.292;11.820;2024-01-30T02:36:33;-2.63;99.99
67722;SHT31;58309;45.292;11.820;2024-01-30T02:38:58;-2.64;99.99
67722;SHT31;58309;45.292;11.820;2024-01-30T02:41:24;-2.61;99.99
67722;SHT31;58309;45.292;11.820;2024-01-30T02:43:49;-2.78;99.99
67722;SHT31;58309;45.292;11.820;2024-01-30T02:46:15;-2.82;99.99
67722;SHT31;58309;45.292;11.820;2024-01-30T02:48:40;-2.94;99.99
67722;SHT31;58309;45.292;11.820;2024-01-30T02:51:06;-3.02;99.99
67722;SHT31;58309;45.292;11.820;2024-01-30T02:53:32;-3.06;99.99
67722;SHT31;58309;45.292;11.820;2024-01-30T02:55:58;-3.11;99.99
67722;SHT31;58309;45.292;11.820;2024-01-30T02:58:23;-3.11;99.99
67722;SHT31;58309;45.292;11.820;2024-01-30T03:00:49;-3.11;99.99
67722;SHT31;58309;45.292;11.820;2024-01-30T03:03:14;-3.08;99.99
67722;SHT31;58309;45.292;11.820;2024-01-30T03:05:39;-3.13;99.99
67722;SHT31;58309;45.292;11.820;2024-01-30T03:08:05;-3.17;99.99
67722;SHT31;58309;45.292;11.820;2024-01-30T03:10:31;-3.20;99.99
67722;SHT31;58309;45.292;11.820;2024-01-30T03:12:56;-3.23;99.99
67722;SHT31;58309;45.292;11.820;2024-01-30T03:15:21;-3.36;99.99
67722;SHT31;58309;45.292;11.820;2024-01-30T03:17:48;-3.44;99.99
67722;SHT31;58309;45.292;11.820;2024-01-30T03:20:13;-3.50;99.99
67722;SHT31;58309;45.292;11.820;2024-01-30T03:22:39;-3.44;99.99
67722;SHT31;58309;45.292;11.820;2024-01-30T03:25:04;-3.39;99.99
67722;SHT31;58309;45.292;11.820;2024-01-30T03:27:30;-3.36;99.99
67722;SHT31;58309;45.292;11.820;2024-01-30T03:29:55;-3.42;99.99
67722;SHT31;58309;45.292;11.820;2024-01-30T03:32:21;-3.43;99.99
67722;SHT31;58309;45.292;11.820;2024-01-30T03:34:46;-3.42;99.99
67722;SHT31;58309;45.292;11.820;2024-01-30T03:37:12;-3.40;99.99
67722;SHT31;58309;45.292;11.820;2024-01-30T03:39:37;-3.36;99.99
67722;SHT31;58309;45.292;11.820;2024-01-30T03:42:03;-3.31;99.99
67722;SHT31;58309;45.292;11.820;2024-01-30T03:44:28;-3.26;99.99
67722;SHT31;58309;45.292;11.820;2024-01-30T03:46:54;-3.22;99.99
67722;SHT31;58309;45.292;11.820;2024-01-30T03:49:19;-3.22;99.99
67722;SHT31;58309;45.292;11.820;2024-01-30T03:51:44;-3.22;99.99
67722;SHT31;58309;45.292;11.820;2024-01-30T03:54:10;-3.22;99.99
67722;SHT31;58309;45.292;11.820;2024-01-30T03:56:35;-3.19;99.99
67722;SHT31;58309;45.292;11.820;2024-01-30T03:59:01;-3.16;99.99
67722;SHT31;58309;45.292;11.820;2024-01-30T04:01:28;-3.15;99.99
67722;SHT31;58309;45.292;11.820;2024-01-30T04:03:53;-3.12;99.99
67722;SHT31;58309;45.292;11.820;2024-01-30T04:06:19;-3.09;99.99
67722;SHT31;58309;45.292;11.820;2024-01-30T04:08:44;-3.12;99.99
67722;SHT31;58309;45.292;11.820;2024-01-30T04:11:10;-3.08;99.99
67722;SHT31;58309;45.292;11.820;2024-01-30T04:13:35;-3.06;99.99
67722;SHT31;58309;45.292;11.820;2024-01-30T04:16:01;-3.02;99.99
67722;SHT31;58309;45.292;11.820;2024-01-30T04:18:27;-3.04;99.99
67722;SHT31;58309;45.292;11.820;2024-01-30T04:20:53;-3.02;99.99
67722;SHT31;58309;45.292;11.820;2024-01-30T04:23:18;-3.04;99.99
67722;SHT31;58309;45.292;11.820;2024-01-30T04:25:44;-3.05;99.99
67722;SHT31;58309;45.292;11.820;2024-01-30T04:28:10;-3.04;99.99
67722;SHT31;58309;45.292;11.820;2024-01-30T04:30:37;-3.02;99.99
67722;SHT31;58309;45.292;11.820;2024-01-30T04:33:03;-2.98;99.99
67722;SHT31;58309;45.292;11.820;2024-01-30T04:35:28;-2.87;99.99
67722;SHT31;58309;45.292;11.820;2024-01-30T04:37:54;-2.81;99.99
67722;SHT31;58309;45.292;11.820;2024-01-30T04:40:20;-2.75;99.99
67722;SHT31;58309;45.292;11.820;2024-01-30T04:42:46;-2.71;99.99
67722;SHT31;58309;45.292;11.820;2024-01-30T04:45:12;-2.61;99.99
67722;SHT31;58309;45.292;11.820;2024-01-30T04:47:37;-2.61;99.99
67722;SHT31;58309;45.292;11.820;2024-01-30T04:50:06;-2.61;99.99
67722;SHT31;58309;45.292;11.820;2024-01-30T04:52:31;-2.58;99.99
67722;SHT31;58309;45.292;11.820;2024-01-30T04:54:57;-2.57;99.99
67722;SHT31;58309;45.292;11.820;2024-01-30T04:57:22;-2.56;99.99
67722;SHT31;58309;45.292;11.820;2024-01-30T04:59:48;-2.56;99.99
67722;SHT31;58309;45.292;11.820;2024-01-30T05:02:13;-2.54;99.99
67722;SHT31;58309;45.292;11.820;2024-01-30T05:04:40;-2.54;99.99
67722;SHT31;58309;45.292;11.820;2024-01-30T05:07:06;-2.49;99.99
67722;SHT31;58309;45.292;11.820;2024-01-30T05:09:31;-2.46;99.99
67722;SHT31;58309;45.292;11.820;2024-01-30T05:11:57;-2.40;99.99
67722;SHT31;58309;45.292;11.820;2024-01-30T05:14:23;-2.36;99.99
67722;SHT31;58309;45.292;11.820;2024-01-30T05:16:49;-2.32;99.99
67722;SHT31;58309;45.292;11.820;2024-01-30T05:19:14;-2.28;99.99
67722;SHT31;58309;45.292;11.820;2024-01-30T05:21:41;-2.23;99.99
67722;SHT31;58309;45.292;11.820;2024-01-30T05:24:06;-2.14;99.99
67722;SHT31;58309;45.292;11.820;2024-01-30T05:26:32;-2.14;99.99
67722;SHT31;58309;45.292;11.820;2024-01-30T05:28:57;-2.09;99.99
67722;SHT31;58309;45.292;11.820;2024-01-30T05:31:23;-2.02;99.99
67722;SHT31;58309;45.292;11.820;2024-01-30T05:33:48;-1.99;99.99
67722;SHT31;58309;45.292;11.820;2024-01-30T05:36:14;-1.95;99.99
67722;SHT31;58309;45.292;11.820;2024-01-30T05:38:39;-1.92;99.99
67722;SHT31;58309;45.292;11.820;2024-01-30T05:41:05;-1.89;99.99
67722;SHT31;58309;45.292;11.820;2024-01-30T05:43:31;-1.88;99.99
67722;SHT31;58309;45.292;11.820;2024-01-30T05:45:56;-1.88;99.99
67722;SHT31;58309;45.292;11.820;2024-01-30T05:48:22;-1.85;99.99
67722;SHT31;58309;45.292;11.820;2024-01-30T05:50:47;-1.85;99.99
67722;SHT31;58309;45.292;11.820;2024-01-30T05:53:13;-1.83;99.99
67722;SHT31;58309;45.292;11.820;2024-01-30T05:55:39;-1.83;99.99
67722;SHT31;58309;45.292;11.820;2024-01-30T05:58:05;-1.82;99.99
67722;SHT31;58309;45.292;11.820;2024-01-30T06:00:30;-1.88;99.99
67722;SHT31;58309;45.292;11.820;2024-01-30T06:02:56;-1.86;99.99
67722;SHT31;58309;45.292;11.820;2024-01-30T06:05:21;-1.89;99.99
67722;SHT31;58309;45.292;11.820;2024-01-30T06:07:47;-1.92;99.99
67722;SHT31;58309;45.292;11.820;2024-01-30T06:10:12;-1.95;99.99
67722;SHT31;58309;45.292;11.820;2024-01-30T06:12:37;-1.91;99.99
67722;SHT31;58309;45.292;11.820;2024-01-30T06:15:03;-1.96;99.99
67722;SHT31;58309;45.292;11.820;2024-01-30T06:17:29;-1.98;99.99
67722;SHT31;58309;45.292;11.820;2024-01-30T06:19:54;-2.01;99.99
67722;SHT31;58309;45.292;11.820;2024-01-30T06:22:20;-2.05;99.99
67722;SHT31;58309;45.292;11.820;2024-01-30T06:24:45;-2.06;99.99
67722;SHT31;58309;45.292;11.820;2024-01-30T06:27:13;-2.16;99.99
67722;SHT31;58309;45.292;11.820;2024-01-30T06:29:38;-2.19;99.99
67722;SHT31;58309;45.292;11.820;2024-01-30T06:32:04;-2.25;99.99
67722;SHT31;58309;45.292;11.820;2024-01-30T06:34:30;-2.29;99.99
67722;SHT31;58309;45.292;11.820;2024-01-30T06:36:55;-2.30;99.99
67722;SHT31;58309;45.292;11.820;2024-01-30T06:39:21;-2.33;99.99
67722;SHT31;58309;45.292;11.820;2024-01-30T06:41:46;-2.37;99.99
67722;SHT31;58309;45.292;11.820;2024-01-30T06:44:12;-2.40;99.99
67722;SHT31;58309;45.292;11.820;2024-01-30T06:46:38;-2.40;99.99
67722;SHT31;58309;45.292;11.820;2024-01-30T06:49:04;-2.34;99.99
67722;SHT31;58309;45.292;11.820;2024-01-30T06:51:30;-2.33;99.99
67722;SHT31;58309;45.292;11.820;2024-01-30T06:53:55;-2.26;99.99
67722;SHT31;58309;45.292;11.820;2024-01-30T06:56:20;-2.25;99.99
67722;SHT31;58309;45.292;11.820;2024-01-30T06:58:55;-2.28;99.99
67722;SHT31;58309;45.292;11.820;2024-01-30T07:01:21;-2.33;99.99
67722;SHT31;58309;45.292;11.820;2024-01-30T07:03:52;-2.43;99.99
67722;SHT31;58309;45.292;11.820;2024-01-30T07:06:18;-2.46;99.99
67722;SHT31;58309;45.292;11.820;2024-01-30T07:08:43;-2.46;99.99
67722;SHT31;58309;45.292;11.820;2024-01-30T07:11:08;-2.43;99.99
67722;SHT31;58309;45.292;11.820;2024-01-30T07:13:34;-2.37;99.99
67722;SHT31;58309;45.292;11.820;2024-01-30T07:16:00;-2.36;99.99
67722;SHT31;58309;45.292;11.820;2024-01-30T07:18:26;-2.36;99.99
67722;SHT31;58309;45.292;11.820;2024-01-30T07:20:51;-2.39;99.99
67722;SHT31;58309;45.292;11.820;2024-01-30T07:23:17;-2.37;99.99
67722;SHT31;58309;45.292;11.820;2024-01-30T07:25:45;-2.30;99.99
67722;SHT31;58309;45.292;11.820;2024-01-30T07:28:11;-2.25;99.99
67722;SHT31;58309;45.292;11.820;2024-01-30T07:30:42;-2.16;99.99
67722;SHT31;58309;45.292;11.820;2024-01-30T07:33:08;-2.07;99.99
67722;SHT31;58309;45.292;11.820;2024-01-30T07:35:34;-1.99;99.99
67722;SHT31;58309;45.292;11.820;2024-01-30T07:37:59;-1.95;99.99
67722;SHT31;58309;45.292;11.820;2024-01-30T07:40:25;-1.91;99.99
67722;SHT31;58309;45.292;11.820;2024-01-30T07:42:53;-1.78;99.99
67722;SHT31;58309;45.292;11.820;2024-01-30T07:45:19;-1.78;99.99
67722;SHT31;58309;45.292;11.820;2024-01-30T07:47:48;-1.71;99.99
67722;SHT31;58309;45.292;11.820;2024-01-30T07:50:14;-1.60;99.99
67722;SHT31;58309;45.292;11.820;2024-01-30T07:52:39;-1.41;99.99
67722;SHT31;58309;45.292;11.820;2024-01-30T07:55:05;-1.36;99.99
67722;SHT31;58309;45.292;11.820;2024-01-30T07:57:33;-1.26;99.99
67722;SHT31;58309;45.292;11.820;2024-01-30T07:59:59;-1.19;99.99
67722;SHT31;58309;45.292;11.820;2024-01-30T08:02:25;-1.17;99.99
67722;SHT31;58309;45.292;11.820;2024-01-30T08:04:50;-1.16;99.99
67722;SHT31;58309;45.292;11.820;2024-01-30T08:07:16;-1.14;99.99
67722;SHT31;58309;45.292;11.820;2024-01-30T08:09:43;-1.07;99.99
67722;SHT31;58309;45.292;11.820;2024-01-30T08:12:09;-0.86;99.99
67722;SHT31;58309;45.292;11.820;2024-01-30T08:14:34;-0.64;99.99
67722;SHT31;58309;45.292;11.820;2024-01-30T08:16:59;-0.49;99.99
67722;SHT31;58309;45.292;11.820;2024-01-30T08:19:25;-0.32;99.99
67722;SHT31;58309;45.292;11.820;2024-01-30T08:21:50;-0.15;99.99
67722;SHT31;58309;45.292;11.820;2024-01-30T08:24:16;-0.07;99.99
67722;SHT31;58309;45.292;11.820;2024-01-30T08:26:41;0.09;99.99
67722;SHT31;58309;45.292;11.820;2024-01-30T08:29:07;0.11;99.99
67722;SHT31;58309;45.292;11.820;2024-01-30T08:31:32;0.14;99.99
67722;SHT31;58309;45.292;11.820;2024-01-30T08:33:58;0.58;99.99
67722;SHT31;58309;45.292;11.820;2024-01-30T08:36:23;1.47;99.99
67722;SHT31;58309;45.292;11.820;2024-01-30T08:38:49;2.21;99.38
67722;SHT31;58309;45.292;11.820;2024-01-30T08:41:14;3.12;98.08
67722;SHT31;58309;45.292;11.820;2024-01-30T08:43:40;3.53;94.96
67722;SHT31;58309;45.292;11.820;2024-01-30T08:46:05;3.46;92.47
67722;SHT31;58309;45.292;11.820;2024-01-30T08:48:31;3.19;93.32
67722;SHT31;58309;45.292;11.820;2024-01-30T08:50:57;2.72;94.39
67722;SHT31;58309;45.292;11.820;2024-01-30T08:53:22;2.56;94.15
67722;SHT31;58309;45.292;11.820;2024-01-30T08:55:47;2.29;94.67
67722;SHT31;58309;45.292;11.820;2024-01-30T08:58:13;2.46;95.84
67722;SHT31;58309;45.292;11.820;2024-01-30T09:00:38;3.31;95.35
67722;SHT31;58309;45.292;11.820;2024-01-30T09:03:04;3.46;91.70
67722;SHT31;58309;45.292;11.820;2024-01-30T09:05:29;3.85;91.20
67722;SHT31;58309;45.292;11.820;2024-01-30T09:07:55;4.49;90.88
67722;SHT31;58309;45.292;11.820;2024-01-30T09:10:21;4.79;89.39
67722;SHT31;58309;45.292;11.820;2024-01-30T09:12:47;4.85;88.34
67722;SHT31;58309;45.292;11.820;2024-01-30T09:15:12;4.75;87.48
67722;SHT31;58309;45.292;11.820;2024-01-30T09:17:38;5.52;86.23
67722;SHT31;58309;45.292;11.820;2024-01-30T09:20:04;6.16;82.79
67722;SHT31;58309;45.292;11.820;2024-01-30T09:22:30;6.70;84.12
67722;SHT31;58309;45.292;11.820;2024-01-30T09:24:57;6.71;78.19
67722;SHT31;58309;45.292;11.820;2024-01-30T09:27:23;6.85;80.00
67722;SHT31;58309;45.292;11.820;2024-01-30T09:29:51;7.52;80.26
67722;SHT31;58309;45.292;11.820;2024-01-30T09:32:17;7.69;76.91
67722;SHT31;58309;45.292;11.820;2024-01-30T09:34:43;7.76;78.38
67722;SHT31;58309;45.292;11.820;2024-01-30T09:37:08;7.77;78.46
67722;SHT31;58309;45.292;11.820;2024-01-30T09:39:33;7.87;79.10
67722;SHT31;58309;45.292;11.820;2024-01-30T09:44:35;8.82;76.17
67722;SHT31;58309;45.292;11.820;2024-01-30T09:47:02;9.17;74.44
67722;SHT31;58309;45.292;11.820;2024-01-30T09:49:34;9.38;72.94
67722;SHT31;58309;45.292;11.820;2024-01-30T09:52:07;9.48;73.38
67722;SHT31;58309;45.292;11.820;2024-01-30T09:54:33;9.65;71.84
67722;SHT31;58309;45.292;11.820;2024-01-30T09:56:59;9.82;72.14
67722;SHT31;58309;45.292;11.820;2024-01-30T09:59:24;10.23;72.74
67722;SHT31;58309;45.292;11.820;2024-01-30T10:01:50;10.50;70.95
67722;SHT31;58309;45.292;11.820;2024-01-30T10:04:16;10.74;72.36
67722;SHT31;58309;45.292;11.820;2024-01-30T10:06:42;10.97;70.78
67722;SHT31;58309;45.292;11.820;2024-01-30T10:09:08;11.32;71.20
67722;SHT31;58309;45.292;11.820;2024-01-30T10:11:35;11.46;68.17
67722;SHT31;58309;45.292;11.820;2024-01-30T10:14:01;11.69;67.57
67722;SHT31;58309;45.292;11.820;2024-01-30T10:16:26;11.77;69.03
67722;SHT31;58309;45.292;11.820;2024-01-30T10:18:52;12.13;68.06
67722;SHT31;58309;45.292;11.820;2024-01-30T10:21:18;12.20;67.76
67722;SHT31;58309;45.292;11.820;2024-01-30T10:23:43;12.05;67.94
67722;SHT31;58309;45.292;11.820;2024-01-30T10:26:10;12.24;68.69
67722;SHT31;58309;45.292;11.820;2024-01-30T10:28:36;12.03;69.14
67722;SHT31;58309;45.292;11.820;2024-01-30T10:31:01;12.32;67.11
67722;SHT31;58309;45.292;11.820;2024-01-30T10:33:32;12.55;68.13
67722;SHT31;58309;45.292;11.820;2024-01-30T10:36:02;12.56;67.69
67722;SHT31;58309;45.292;11.820;2024-01-30T10:38:29;12.49;67.64
67722;SHT31;58309;45.292;11.820;2024-01-30T10:41:00;12.96;66.76
67722;SHT31;58309;45.292;11.820;2024-01-30T10:43:35;12.82;65.83
67722;SHT31;58309;45.292;11.820;2024-01-30T10:46:10;13.19;64.99
67722;SHT31;58309;45.292;11.820;2024-01-30T10:48:42;13.30;64.34
67722;SHT31;58309;45.292;11.820;2024-01-30T10:51:09;13.70;62.92
67722;SHT31;58309;45.292;11.820;2024-01-30T10:53:35;13.64;63.77
67722;SHT31;58309;45.292;11.820;2024-01-30T10:56:03;13.70;63.78
67722;SHT31;58309;45.292;11.820;2024-01-30T10:58:29;13.86;64.45
67722;SHT31;58309;45.292;11.820;2024-01-30T11:00:55;13.94;63.86
67722;SHT31;58309;45.292;11.820;2024-01-30T11:03:22;14.08;63.66
67722;SHT31;58309;45.292;11.820;2024-01-30T11:05:52;14.52;63.51
67722;SHT31;58309;45.292;11.820;2024-01-30T11:08:24;14.73;62.97
67722;SHT31;58309;45.292;11.820;2024-01-30T11:10:55;15.07;62.19
67722;SHT31;58309;45.292;11.820;2024-01-30T11:13:22;14.97;62.43
67722;SHT31;58309;45.292;11.820;2024-01-30T11:15:48;14.94;62.67
67722;SHT31;58309;45.292;11.820;2024-01-30T11:18:25;14.44;62.99
67722;SHT31;58309;45.292;11.820;2024-01-30T11:20:51;14.16;63.91
67722;SHT31;58309;45.292;11.820;2024-01-30T11:23:16;13.91;65.34
67722;SHT31;58309;45.292;11.820;2024-01-30T11:25:43;13.74;65.53
67722;SHT31;58309;45.292;11.820;2024-01-30T11:28:14;13.64;65.85
67722;SHT31;58309;45.292;11.820;2024-01-30T11:30:43;13.48;66.58
67722;SHT31;58309;45.292;11.820;2024-01-30T11:33:14;13.13;67.16
67722;SHT31;58309;45.292;11.820;2024-01-30T11:35:44;12.81;68.31
67722;SHT31;58309;45.292;11.820;2024-01-30T11:38:10;12.86;68.51
67722;SHT31;58309;45.292;11.820;2024-01-30T11:40:37;12.54;69.27
67722;SHT31;58309;45.292;11.820;2024-01-30T11:43:05;12.44;69.72
67722;SHT31;58309;45.292;11.820;2024-01-30T11:45:31;12.23;70.74
67722;SHT31;58309;45.292;11.820;2024-01-30T11:47:57;11.87;70.67
67722;SHT31;58309;45.292;11.820;2024-01-30T11:50:25;11.87;72.88
67722;SHT31;58309;45.292;11.820;2024-01-30T11:52:51;11.76;72.25
67722;SHT31;58309;45.292;11.820;2024-01-30T11:55:17;12.00;71.22
67722;SHT31;58309;45.292;11.820;2024-01-30T11:57:43;11.89;72.33
67722;SHT31;58309;45.292;11.820;2024-01-30T12:00:16;11.70;72.06
67722;SHT31;58309;45.292;11.820;2024-01-30T12:02:44;11.26;72.96
67722;SHT31;58309;45.292;11.820;2024-01-30T12:05:09;11.11;75.11
67722;SHT31;58309;45.292;11.820;2024-01-30T12:07:36;11.02;74.99
67722;SHT31;58309;45.292;11.820;2024-01-30T12:10:01;11.18;74.85
67722;SHT31;58309;45.292;11.820;2024-01-30T12:12:28;11.46;73.06
67722;SHT31;58309;45.292;11.820;2024-01-30T12:14:55;11.42;73.27
67722;SHT31;58309;45.292;11.820;2024-01-30T12:17:39;11.35;73.44
67722;SHT31;58309;45.292;11.820;2024-01-30T12:20:06;11.32;73.22
67722;SHT31;58309;45.292;11.820;2024-01-30T12:22:46;11.33;74.00
67722;SHT31;58309;45.292;11.820;2024-01-30T12:25:14;11.07;74.35
67722;SHT31;58309;45.292;11.820;2024-01-30T12:27:43;10.91;74.26
67722;SHT31;58309;45.292;11.820;2024-01-30T12:30:10;10.63;75.78
67722;SHT31;58309;45.292;11.820;2024-01-30T12:32:40;10.50;74.83
67722;SHT31;58309;45.292;11.820;2024-01-30T12:35:17;10.70;75.75
67722;SHT31;58309;45.292;11.820;2024-01-30T12:37:43;10.61;75.90
67722;SHT31;58309;45.292;11.820;2024-01-30T12:40:10;10.63;76.77
67722;SHT31;58309;45.292;11.820;2024-01-30T12:42:36;10.42;77.64
67722;SHT31;58309;45.292;11.820;2024-01-30T12:45:03;10.24;77.03
67722;SHT31;58309;45.292;11.820;2024-01-30T12:47:29;10.01;78.02
67722;SHT31;58309;45.292;11.820;2024-01-30T12:49:55;9.75;79.69
67722;SHT31;58309;45.292;11.820;2024-01-30T12:52:21;9.64;80.50
67722;SHT31;58309;45.292;11.820;2024-01-30T12:54:48;9.44;80.85
67722;SHT31;58309;45.292;11.820;2024-01-30T12:57:13;9.38;81.38
67722;SHT31;58309;45.292;11.820;2024-01-30T12:59:39;9.35;81.35
67722;SHT31;58309;45.292;11.820;2024-01-30T13:02:05;9.20;80.77
67722;SHT31;58309;45.292;11.820;2024-01-30T13:04:31;9.11;81.45
67722;SHT31;58309;45.292;11.820;2024-01-30T13:06:56;8.92;81.61
67722;SHT31;58309;45.292;11.820;2024-01-30T13:09:22;8.90;82.95
67722;SHT31;58309;45.292;11.820;2024-01-30T13:11:48;8.87;83.53
67722;SHT31;58309;45.292;11.820;2024-01-30T13:14:14;8.86;82.73
67722;SHT31;58309;45.292;11.820;2024-01-30T13:16:39;8.75;82.31
67722;SHT31;58309;45.292;11.820;2024-01-30T13:19:05;8.63;82.19
67722;SHT31;58309;45.292;11.820;2024-01-30T13:21:31;8.62;82.36
67722;SHT31;58309;45.292;11.820;2024-01-30T13:23:56;8.53;82.10
67722;SHT31;58309;45.292;11.820;2024-01-30T13:26:22;8.45;82.23
67722;SHT31;58309;45.292;11.820;2024-01-30T13:28:47;8.37;82.98
67722;SHT31;58309;45.292;11.820;2024-01-30T13:31:14;8.38;83.71
67722;SHT31;58309;45.292;11.820;2024-01-30T13:33:40;8.38;83.30
67722;SHT31;58309;45.292;11.820;2024-01-30T13:36:07;8.27;83.64
67722;SHT31;58309;45.292;11.820;2024-01-30T13:38:32;8.25;83.58
67722;SHT31;58309;45.292;11.820;2024-01-30T13:40:59;8.28;84.40
67722;SHT31;58309;45.292;11.820;2024-01-30T13:43:24;8.21;85.30
67722;SHT31;58309;45.292;11.820;2024-01-30T13:45:50;8.22;85.54
67722;SHT31;58309;45.292;11.820;2024-01-30T13:48:15;8.15;85.38
67722;SHT31;58309;45.292;11.820;2024-01-30T13:50:41;8.10;86.19
67722;SHT31;58309;45.292;11.820;2024-01-30T13:53:06;8.01;84.25
67722;SHT31;58309;45.292;11.820;2024-01-30T13:55:32;7.98;84.32
67722;SHT31;58309;45.292;11.820;2024-01-30T13:57:58;7.91;84.18
67722;SHT31;58309;45.292;11.820;2024-01-30T14:00:23;7.81;84.64
67722;SHT31;58309;45.292;11.820;2024-01-30T14:02:50;7.80;85.89
67722;SHT31;58309;45.292;11.820;2024-01-30T14:05:16;7.83;85.85
67722;SHT31;58309;45.292;11.820;2024-01-30T14:07:43;7.80;85.63
67722;SHT31;58309;45.292;11.820;2024-01-30T14:10:09;7.79;85.65
67722;SHT31;58309;45.292;11.820;2024-01-30T14:12:36;7.70;85.70
67722;SHT31;58309;45.292;11.820;2024-01-30T14:15:02;7.69;86.34
67722;SHT31;58309;45.292;11.820;2024-01-30T14:17:27;7.67;86.45
67722;SHT31;58309;45.292;11.820;2024-01-30T14:19:53;7.65;86.86
67722;SHT31;58309;45.292;11.820;2024-01-30T14:22:18;7.66;87.35
67722;SHT31;58309;45.292;11.820;2024-01-30T14:24:43;7.66;87.35
67722;SHT31;58309;45.292;11.820;2024-01-30T14:27:10;7.58;87.39
67722;SHT31;58309;45.292;11.820;2024-01-30T14:29:35;7.53;87.21
67722;SHT31;58309;45.292;11.820;2024-01-30T14:32:01;7.50;87.30
67722;SHT31;58309;45.292;11.820;2024-01-30T14:34:26;7.43;87.39
67722;SHT31;58309;45.292;11.820;2024-01-30T14:36:52;7.45;87.76
67722;SHT31;58309;45.292;11.820;2024-01-30T14:39:18;7.43;87.85
67722;SHT31;58309;45.292;11.820;2024-01-30T14:41:44;7.45;88.22
67722;SHT31;58309;45.292;11.820;2024-01-30T14:44:09;7.49;88.37
67722;SHT31;58309;45.292;11.820;2024-01-30T14:46:36;7.48;88.06
67722;SHT31;58309;45.292;11.820;2024-01-30T14:49:02;7.48;88.35
67722;SHT31;58309;45.292;11.820;2024-01-30T14:51:30;7.46;88.48
67722;SHT31;58309;45.292;11.820;2024-01-30T14:53:56;7.48;88.54
67722;SHT31;58309;45.292;11.820;2024-01-30T14:56:21;7.43;88.52
67722;SHT31;58309;45.292;11.820;2024-01-30T14:58:47;7.42;88.70
67722;SHT31;58309;45.292;11.820;2024-01-30T15:01:13;7.39;88.67
67722;SHT31;58309;45.292;11.820;2024-01-30T15:03:38;7.28;88.97
67722;SHT31;58309;45.292;11.820;2024-01-30T15:06:05;7.16;89.63
67722;SHT31;58309;45.292;11.820;2024-01-30T15:08:31;7.09;89.49
67722;SHT31;58309;45.292;11.820;2024-01-30T15:10:56;6.99;89.49
67722;SHT31;58309;45.292;11.820;2024-01-30T15:13:22;6.94;89.67
67722;SHT31;58309;45.292;11.820;2024-01-30T15:15:48;6.85;89.84